Airport View

Enter AWOS ICAO identifier for current METAR.

ex. KFNL

KDEN 100229Z 12016KT 10SM TS SCT070CB BKN090 BKN150 BKN200 27/14 A3004 RMK AO2 LTG DSNT N AND NW TSB28 CONS LTGICCCCG NW TS NW MOV STNRY T02720139

10 Jul 2020 02:52

Frequency: 125.600

Phone:

Other Area AWOS: KFTG - KBKF - KAPA - KEIK

TAF AMD KDEN 100239Z 1003/1106 11015KT P6SM TS BKN090CB BKN150 TEMPO 1003/1004 VRB20G30KT -TSRA BKN080CB FM100400 16012KT P6SM FEW090 BKN120 FM100700 20010KT P6SM SCT110 FM101500 32006KT P6SM FEW250 FM101900 04008KT P6SM FEW100 FEW200